createdAt,value
2022-10-07T00:00:52.380Z,2.08
2022-10-07T00:03:20.550Z,2.08
2022-10-07T00:05:47.777Z,2.10
2022-10-07T00:08:14.396Z,1.63
2022-10-07T00:10:42.903Z,1.85
2022-10-07T00:13:12.082Z,2.20
2022-10-07T00:15:39.263Z,2.13
2022-10-07T00:18:06.234Z,2.20
2022-10-07T00:20:40.724Z,1.98
2022-10-07T00:23:08.036Z,1.80
2022-10-07T00:25:38.144Z,1.83
2022-10-07T00:28:05.820Z,1.90
2022-10-07T00:30:32.863Z,1.90
2022-10-07T00:32:59.699Z,1.73
2022-10-07T00:35:26.522Z,1.90
2022-10-07T00:37:53.522Z,1.83
2022-10-07T00:40:20.070Z,1.90
2022-10-07T00:42:46.978Z,1.80
2022-10-07T00:45:16.744Z,1.88
2022-10-07T00:47:49.658Z,1.70
2022-10-07T00:50:24.527Z,1.75
2022-10-07T00:52:59.109Z,2.10
2022-10-07T00:55:30.125Z,1.98
2022-10-07T00:58:01.632Z,1.60
2022-10-07T01:00:28.768Z,1.90
2022-10-07T01:02:55.361Z,2.05
2022-10-07T01:05:21.928Z,1.92
2022-10-07T01:07:50.821Z,1.90
2022-10-07T01:10:21.679Z,2.00
2022-10-07T01:12:53.955Z,2.08
2022-10-07T01:15:41.916Z,1.90
2022-10-07T01:18:25.617Z,2.10
2022-10-07T01:20:52.129Z,2.17
2022-10-07T01:23:55.205Z,1.80
2022-10-07T01:26:30.249Z,2.00
2022-10-07T01:29:08.482Z,2.00
2022-10-07T01:31:46.106Z,1.90
2022-10-07T01:34:15.053Z,2.08
2022-10-07T01:36:44.710Z,2.47
2022-10-07T01:39:15.695Z,1.80
2022-10-07T01:41:42.780Z,2.33
2022-10-07T01:44:11.900Z,2.30
2022-10-07T01:46:38.585Z,2.10
2022-10-07T01:49:06.317Z,2.28
2022-10-07T01:51:37.615Z,2.20
2022-10-07T01:54:33.831Z,2.53
2022-10-07T01:57:15.307Z,2.30
2022-10-07T02:00:01.620Z,2.10
2022-10-07T02:03:10.070Z,2.08
2022-10-07T02:05:51.340Z,2.55
2022-10-07T02:08:23.829Z,3.28
2022-10-07T02:11:03.582Z,2.00
2022-10-07T02:14:03.593Z,2.30
2022-10-07T02:16:48.137Z,2.30
2022-10-07T02:19:24.413Z,2.25
2022-10-07T02:21:53.092Z,2.50
2022-10-07T02:24:23.170Z,2.03
2022-10-07T02:26:53.798Z,2.10
2022-10-07T02:29:24.204Z,2.33
2022-10-07T02:31:58.517Z,2.20
2022-10-07T02:34:28.563Z,2.05
2022-10-07T02:37:00.846Z,2.47
2022-10-07T02:39:29.102Z,2.53
2022-10-07T02:42:04.757Z,2.20
2022-10-07T02:44:42.904Z,2.10
2022-10-07T02:47:25.780Z,2.20
2022-10-07T02:49:53.962Z,2.20
2022-10-07T02:52:22.577Z,2.33
2022-10-07T02:54:59.509Z,2.10
2022-10-07T02:57:31.649Z,2.33
2022-10-07T03:00:01.117Z,2.08
2022-10-07T03:02:54.276Z,2.50
2022-10-07T03:05:26.137Z,2.35
2022-10-07T03:08:00.390Z,2.00
2022-10-07T03:10:28.945Z,2.40
2022-10-07T03:12:56.962Z,2.28
2022-10-07T03:15:25.260Z,2.42
2022-10-07T03:17:53.826Z,2.60
2022-10-07T03:20:21.335Z,2.38
2022-10-07T03:22:48.384Z,2.70
2022-10-07T03:25:17.701Z,2.55
2022-10-07T03:27:44.530Z,2.78
2022-10-07T03:30:11.905Z,2.60
2022-10-07T03:32:40.478Z,2.15
2022-10-07T03:35:10.646Z,2.28
2022-10-07T03:37:38.494Z,2.42
2022-10-07T03:40:08.620Z,2.80
2022-10-07T03:42:35.314Z,2.42
2022-10-07T03:45:04.253Z,2.10
2022-10-07T03:47:31.204Z,2.42
2022-10-07T03:49:58.011Z,2.28
2022-10-07T03:52:28.731Z,2.28
2022-10-07T03:54:56.723Z,2.25
2022-10-07T03:57:42.280Z,2.50
2022-10-07T04:00:10.187Z,2.38
2022-10-07T04:02:41.388Z,2.10
2022-10-07T04:05:09.222Z,2.55
2022-10-07T04:07:36.199Z,2.67
2022-10-07T04:10:03.795Z,2.50
2022-10-07T04:12:32.458Z,2.15
2022-10-07T04:15:01.817Z,2.40
2022-10-07T04:17:29.672Z,2.22
2022-10-07T04:19:57.883Z,2.85
2022-10-07T04:22:27.613Z,2.30
2022-10-07T04:25:13.040Z,2.58
2022-10-07T04:27:51.609Z,2.40
2022-10-07T04:30:20.891Z,2.40
2022-10-07T04:32:51.732Z,2.15
2022-10-07T04:35:23.222Z,2.50
2022-10-07T04:37:53.200Z,2.50
2022-10-07T04:40:23.507Z,2.30
2022-10-07T04:43:09.501Z,2.50
2022-10-07T04:45:37.377Z,2.30
2022-10-07T04:48:06.991Z,2.55
2022-10-07T04:50:38.593Z,2.22
2022-10-07T04:53:11.773Z,2.70
2022-10-07T04:55:40.241Z,2.47
2022-10-07T04:58:08.467Z,2.25
2022-10-07T05:00:36.220Z,3.30
2022-10-07T05:03:03.703Z,2.60
2022-10-07T05:05:30.364Z,2.30
2022-10-07T05:07:57.004Z,2.65
2022-10-07T05:10:25.789Z,2.60
2022-10-07T05:12:55.890Z,2.78
2022-10-07T05:15:23.602Z,2.33
2022-10-07T05:17:51.799Z,2.53
2022-10-07T05:20:18.546Z,2.83
2022-10-07T05:22:45.153Z,2.40
2022-10-07T05:25:12.147Z,2.88
2022-10-07T05:27:39.114Z,2.72
2022-10-07T05:30:07.091Z,2.90
2022-10-07T05:32:33.916Z,2.42
2022-10-07T05:35:01.816Z,2.53
2022-10-07T05:37:28.489Z,2.60
2022-10-07T05:39:55.389Z,2.33
2022-10-07T05:42:23.083Z,2.20
2022-10-07T05:44:54.365Z,2.40
2022-10-07T05:47:21.323Z,3.03
2022-10-07T05:49:49.311Z,2.75
2022-10-07T05:52:16.107Z,2.45
2022-10-07T05:54:44.502Z,2.25
2022-10-07T05:57:13.113Z,2.45
2022-10-07T05:59:42.180Z,2.53
2022-10-07T06:02:19.030Z,2.80
2022-10-07T06:04:48.855Z,2.70
2022-10-07T06:07:21.339Z,2.00
2022-10-07T06:10:10.195Z,2.70
2022-10-07T06:12:56.472Z,2.10
2022-10-07T06:15:23.296Z,2.50
2022-10-07T06:17:49.963Z,2.40
2022-10-07T06:20:19.025Z,2.40
2022-10-07T06:22:47.412Z,2.78
2022-10-07T06:25:16.660Z,2.70
2022-10-07T06:27:47.302Z,2.58
2022-10-07T06:30:17.118Z,3.10
2022-10-07T06:32:43.883Z,2.47
2022-10-07T06:35:11.012Z,2.55
2022-10-07T06:37:39.338Z,2.60
2022-10-07T06:40:08.041Z,2.65
2022-10-07T06:42:37.533Z,2.40
2022-10-07T06:45:23.446Z,2.63
2022-10-07T06:47:52.907Z,2.15
2022-10-07T06:50:21.301Z,2.65
2022-10-07T06:52:48.135Z,2.45
2022-10-07T06:55:14.917Z,2.50
2022-10-07T06:57:46.019Z,2.33
2022-10-07T07:00:15.901Z,2.20
2022-10-07T07:02:43.670Z,2.10
2022-10-07T07:05:13.888Z,2.30
2022-10-07T07:07:40.577Z,2.35
2022-10-07T07:10:07.817Z,2.53
2022-10-07T07:12:37.699Z,2.47
2022-10-07T07:15:05.107Z,2.72
2022-10-07T07:17:33.040Z,2.30
2022-10-07T07:20:00.723Z,2.10
2022-10-07T07:22:27.370Z,2.40
2022-10-07T07:24:53.940Z,2.13
2022-10-07T07:27:21.496Z,2.20
2022-10-07T07:29:48.211Z,2.75
2022-10-07T07:32:14.907Z,2.60
2022-10-07T07:34:43.422Z,2.38
2022-10-07T07:37:14.492Z,2.20
2022-10-07T07:39:47.414Z,2.42
2022-10-07T07:42:17.336Z,2.40
2022-10-07T07:44:43.985Z,2.42
2022-10-07T07:47:16.398Z,2.28
2022-10-07T07:49:43.889Z,2.70
2022-10-07T07:52:15.206Z,2.75
2022-10-07T07:54:47.557Z,2.53
2022-10-07T07:57:14.354Z,2.28
2022-10-07T07:59:41.580Z,2.10
2022-10-07T08:02:12.114Z,2.30
2022-10-07T08:04:40.838Z,2.20
2022-10-07T08:07:09.292Z,2.13
2022-10-07T08:09:36.258Z,2.50
2022-10-07T08:12:03.059Z,2.35
2022-10-07T08:14:31.198Z,2.63
2022-10-07T08:16:59.170Z,2.40
2022-10-07T08:19:27.513Z,1.90
2022-10-07T08:21:55.113Z,2.65
2022-10-07T08:24:25.792Z,1.85
2022-10-07T08:26:55.877Z,2.00
2022-10-07T08:29:24.030Z,2.35
2022-10-07T08:31:51.246Z,2.28
2022-10-07T08:34:17.906Z,2.42
2022-10-07T08:36:47.462Z,2.33
2022-10-07T08:39:15.045Z,2.22
2022-10-07T08:41:45.996Z,2.05
2022-10-07T08:44:21.557Z,1.88
2022-10-07T08:47:00.792Z,2.17
2022-10-07T08:49:50.266Z,2.17
2022-10-07T08:52:25.447Z,2.35
2022-10-07T08:54:53.098Z,2.15
2022-10-07T08:57:52.901Z,2.20
2022-10-07T09:00:22.248Z,1.92
2022-10-07T09:03:11.607Z,2.42
2022-10-07T09:05:44.265Z,1.88
2022-10-07T09:08:29.870Z,2.10
2022-10-07T09:11:15.643Z,1.58
2022-10-07T09:14:04.636Z,2.28
2022-10-07T09:16:43.303Z,1.85
2022-10-07T09:19:30.280Z,2.05
2022-10-07T09:22:13.766Z,1.65
2022-10-07T09:24:45.236Z,2.00
2022-10-07T09:27:17.921Z,2.08
2022-10-07T09:29:44.979Z,1.92
2022-10-07T09:32:18.250Z,1.67
2022-10-07T09:34:46.281Z,2.10
2022-10-07T09:37:27.891Z,1.77
2022-10-07T09:39:59.275Z,2.30
2022-10-07T09:42:36.186Z,2.20
2022-10-07T09:45:33.141Z,1.92
2022-10-07T09:48:07.326Z,2.10
2022-10-07T09:50:43.460Z,1.98
2022-10-07T09:53:21.416Z,2.05
2022-10-07T09:55:50.101Z,1.70
2022-10-07T09:58:31.437Z,1.63
2022-10-07T10:01:00.990Z,1.80
2022-10-07T10:03:36.516Z,1.60
2022-10-07T10:06:05.430Z,1.60
2022-10-07T10:08:34.138Z,1.80
2022-10-07T10:11:22.516Z,1.48
2022-10-07T10:13:51.360Z,1.48
2022-10-07T10:16:34.447Z,1.80
2022-10-07T10:19:06.241Z,2.00
2022-10-07T10:21:36.602Z,1.65
2022-10-07T10:24:07.896Z,2.10
2022-10-07T10:26:55.678Z,1.50
2022-10-07T10:29:48.044Z,1.80
2022-10-07T10:32:45.625Z,1.75
2022-10-07T10:35:19.867Z,1.75
2022-10-07T10:38:02.442Z,1.58
2022-10-07T10:40:45.358Z,2.05
2022-10-07T10:43:22.106Z,1.85
2022-10-07T10:45:51.990Z,2.13
2022-10-07T10:48:25.798Z,1.67
2022-10-07T10:51:06.498Z,1.98
2022-10-07T10:53:43.405Z,1.83
2022-10-07T10:56:28.632Z,1.73
2022-10-07T10:59:27.073Z,1.73
2022-10-07T11:02:15.668Z,1.88
2022-10-07T11:04:55.325Z,1.38
2022-10-07T11:07:29.636Z,1.95
2022-10-07T11:10:02.416Z,2.10
2022-10-07T11:12:39.927Z,1.15
2022-10-07T11:15:25.708Z,1.98
2022-10-07T11:17:58.972Z,1.92
2022-10-07T11:20:50.169Z,1.38
2022-10-07T11:23:29.309Z,1.73
2022-10-07T11:26:10.886Z,1.42
2022-10-07T11:28:41.630Z,1.42
2022-10-07T11:31:25.072Z,1.88
2022-10-07T11:34:14.522Z,1.58
2022-10-07T11:37:19.090Z,1.52
2022-10-07T11:39:48.869Z,1.77
2022-10-07T11:42:26.503Z,1.77
2022-10-07T11:45:02.291Z,1.58
2022-10-07T11:47:33.961Z,1.80
2022-10-07T11:50:39.565Z,1.58
2022-10-07T11:53:09.827Z,1.77
2022-10-07T11:56:08.401Z,1.48
2022-10-07T11:58:40.894Z,1.65
2022-10-07T12:01:30.007Z,1.65
2022-10-07T12:03:56.418Z,1.40
2022-10-07T12:06:25.756Z,1.60
2022-10-07T12:08:55.274Z,1.55
2022-10-07T12:11:37.617Z,1.88
2022-10-07T12:14:35.732Z,1.58
2022-10-07T12:17:23.911Z,1.55
2022-10-07T12:20:28.965Z,1.60
2022-10-07T12:23:30.058Z,1.88
2022-10-07T12:26:08.240Z,1.70
2022-10-07T12:28:45.921Z,1.95
2022-10-07T12:31:12.604Z,1.58
2022-10-07T12:33:55.472Z,1.70
2022-10-07T12:36:22.040Z,1.75
2022-10-07T12:38:57.821Z,1.50
2022-10-07T12:41:36.371Z,1.85
2022-10-07T12:44:15.318Z,1.90
2022-10-07T12:46:58.174Z,1.70
2022-10-07T12:49:47.167Z,2.00
2022-10-07T12:52:30.747Z,1.83
2022-10-07T12:55:11.330Z,1.67
2022-10-07T12:57:42.153Z,1.73
2022-10-07T13:00:12.071Z,1.58
2022-10-07T13:03:18.623Z,1.85
2022-10-07T13:05:52.499Z,1.80
2022-10-07T13:08:41.209Z,1.58
2022-10-07T13:11:23.374Z,1.83
2022-10-07T13:14:02.529Z,1.70
2022-10-07T13:16:42.487Z,1.92
2022-10-07T13:19:40.364Z,1.40
2022-10-07T13:22:16.149Z,1.77
2022-10-07T13:24:58.576Z,1.73
2022-10-07T13:27:31.228Z,1.50
2022-10-07T13:29:59.888Z,1.48
2022-10-07T13:32:33.791Z,1.70
2022-10-07T13:35:29.455Z,1.50
2022-10-07T13:37:56.556Z,1.70
2022-10-07T13:40:35.828Z,1.80
2022-10-07T13:43:08.733Z,1.50
2022-10-07T13:45:45.301Z,1.33
2022-10-07T13:48:17.486Z,1.70
2022-10-07T13:50:45.167Z,1.95
2022-10-07T13:53:24.998Z,1.70
2022-10-07T13:56:08.494Z,1.67
2022-10-07T13:58:36.835Z,1.83
2022-10-07T14:01:07.166Z,1.50
2022-10-07T14:03:33.739Z,1.52
2022-10-07T14:06:05.083Z,1.40
2022-10-07T14:08:32.957Z,1.60
2022-10-07T14:11:12.359Z,1.58
2022-10-07T14:13:45.456Z,1.75
2022-10-07T14:16:23.422Z,1.65
2022-10-07T14:18:52.791Z,1.35
2022-10-07T14:21:19.675Z,2.05
2022-10-07T14:23:46.981Z,1.88
2022-10-07T14:26:19.339Z,2.78
2022-10-07T14:28:46.134Z,1.55
2022-10-07T14:31:39.430Z,1.63
2022-10-07T14:34:44.787Z,1.52
2022-10-07T14:37:21.705Z,1.73
2022-10-07T14:39:50.313Z,1.38
2022-10-07T14:42:35.906Z,1.55
2022-10-07T14:45:05.247Z,2.10
2022-10-07T14:47:41.413Z,2.00
2022-10-07T14:50:13.393Z,1.67
2022-10-07T14:52:47.142Z,1.65
2022-10-07T14:55:29.130Z,2.03
2022-10-07T14:57:59.115Z,1.45
2022-10-07T15:00:29.890Z,1.58
2022-10-07T15:03:00.603Z,1.90
2022-10-07T15:05:27.265Z,1.55
2022-10-07T15:07:54.177Z,1.60
2022-10-07T15:10:27.999Z,1.60
2022-10-07T15:12:56.067Z,1.52
2022-10-07T15:15:24.919Z,1.90
2022-10-07T15:17:53.047Z,1.70
2022-10-07T15:20:21.312Z,1.70
2022-10-07T15:22:51.998Z,1.75
2022-10-07T15:25:21.603Z,2.22
2022-10-07T15:27:48.196Z,1.50
2022-10-07T15:30:14.895Z,1.90
2022-10-07T15:32:41.540Z,1.73
2022-10-07T15:35:08.435Z,1.65
2022-10-07T15:37:35.064Z,1.20
2022-10-07T15:40:01.895Z,1.83
2022-10-07T15:42:28.520Z,2.17
2022-10-07T15:44:55.050Z,1.70
2022-10-07T15:47:21.673Z,2.22
2022-10-07T15:49:49.507Z,1.50
2022-10-07T15:52:16.142Z,1.60
2022-10-07T15:54:42.726Z,1.83
2022-10-07T15:57:09.321Z,1.98
2022-10-07T15:59:36.132Z,2.17
2022-10-07T16:02:04.389Z,2.20
2022-10-07T16:04:31.131Z,3.33
2022-10-07T16:06:58.049Z,3.00
2022-10-07T16:09:24.714Z,3.30
2022-10-07T16:11:51.402Z,2.90
2022-10-07T16:14:18.214Z,3.00
2022-10-07T16:16:45.462Z,2.25
2022-10-07T16:19:12.262Z,2.20
2022-10-07T16:21:42.847Z,2.30
2022-10-07T16:24:12.459Z,2.17
2022-10-07T16:26:39.277Z,2.03
2022-10-07T16:29:32.376Z,2.50
2022-10-07T16:31:59.810Z,2.78
2022-10-07T16:34:28.205Z,2.00
2022-10-07T16:36:55.662Z,1.63
2022-10-07T16:39:22.564Z,1.88
2022-10-07T16:41:51.775Z,2.15
2022-10-07T16:44:19.430Z,1.95
2022-10-07T16:46:46.311Z,2.00
2022-10-07T16:49:16.005Z,2.17
2022-10-07T16:51:43.722Z,1.90
2022-10-07T16:54:13.398Z,1.50
2022-10-07T16:56:42.235Z,2.15
2022-10-07T16:59:10.607Z,2.20
2022-10-07T17:01:37.992Z,2.30
2022-10-07T17:04:06.102Z,2.28
2022-10-07T17:06:34.078Z,1.90
2022-10-07T17:09:04.560Z,2.15
2022-10-07T17:11:35.725Z,2.33
2022-10-07T17:14:16.172Z,2.10
2022-10-07T17:16:45.543Z,3.50
2022-10-07T17:19:20.418Z,3.38
2022-10-07T17:21:48.373Z,2.00
2022-10-07T17:24:17.047Z,2.10
2022-10-07T17:26:44.404Z,1.80
2022-10-07T17:29:13.775Z,2.10
2022-10-07T17:31:43.103Z,2.30
2022-10-07T17:34:11.659Z,1.98
2022-10-07T17:36:39.638Z,1.98
2022-10-07T17:39:06.954Z,1.77
2022-10-07T17:41:35.626Z,1.65
2022-10-07T17:44:05.115Z,2.30
2022-10-07T17:46:36.863Z,2.10
2022-10-07T17:49:03.915Z,2.10
2022-10-07T17:51:32.312Z,2.40
2022-10-07T17:54:00.986Z,1.75
2022-10-07T17:56:29.797Z,2.38
2022-10-07T17:58:57.221Z,2.28
2022-10-07T18:01:27.425Z,2.20
2022-10-07T18:04:05.801Z,2.10
2022-10-07T18:06:37.683Z,2.47
2022-10-07T18:09:06.730Z,2.00
2022-10-07T18:11:52.132Z,1.98
2022-10-07T18:14:37.954Z,2.17
2022-10-07T18:17:08.376Z,2.33
2022-10-07T18:19:38.175Z,2.28
2022-10-07T18:22:04.803Z,2.70
2022-10-07T18:24:31.654Z,2.25
2022-10-07T18:27:00.492Z,2.00
2022-10-07T18:29:29.064Z,3.00
2022-10-07T18:31:56.374Z,2.00
2022-10-07T18:34:23.287Z,2.22
2022-10-07T18:36:55.221Z,2.20
2022-10-07T18:39:23.231Z,2.38
2022-10-07T18:41:49.818Z,2.40
2022-10-07T18:44:16.482Z,2.20
2022-10-07T18:46:43.041Z,2.58
2022-10-07T18:49:13.486Z,2.53
2022-10-07T18:51:40.804Z,2.53
2022-10-07T18:54:07.644Z,2.95
2022-10-07T18:56:39.806Z,2.85
2022-10-07T18:59:08.148Z,2.90
2022-10-07T19:01:34.834Z,2.60
2022-10-07T19:04:03.592Z,2.50
2022-10-07T19:06:33.287Z,2.60
2022-10-07T19:09:02.312Z,2.85
2022-10-07T19:11:32.023Z,2.90
2022-10-07T19:13:59.802Z,2.20
2022-10-07T19:16:29.442Z,2.80
2022-10-07T19:18:59.006Z,2.70
2022-10-07T19:21:26.402Z,2.40
2022-10-07T19:23:55.131Z,2.65
2022-10-07T19:26:24.846Z,2.60
2022-10-07T19:28:53.168Z,2.88
2022-10-07T19:31:28.031Z,3.22
2022-10-07T19:34:03.167Z,3.03
2022-10-07T19:36:33.225Z,2.60
2022-10-07T19:38:59.962Z,2.55
2022-10-07T19:41:29.285Z,2.70
2022-10-07T19:43:56.616Z,3.17
2022-10-07T19:46:25.469Z,2.45
2022-10-07T19:48:56.146Z,3.33
2022-10-07T19:51:23.544Z,2.47
2022-10-07T19:53:51.369Z,2.45
2022-10-07T19:56:23.100Z,2.70
2022-10-07T19:58:52.292Z,2.58
2022-10-07T20:01:25.150Z,2.45
2022-10-07T20:03:59.803Z,2.50
2022-10-07T20:06:27.589Z,2.20
2022-10-07T20:08:55.414Z,2.40
2022-10-07T20:11:22.852Z,2.50
2022-10-07T20:13:49.643Z,2.33
2022-10-07T20:16:24.979Z,2.42
2022-10-07T20:19:01.600Z,2.63
2022-10-07T20:21:28.880Z,2.50
2022-10-07T20:23:55.592Z,2.38
2022-10-07T20:26:42.465Z,2.78
2022-10-07T20:29:11.712Z,2.67
2022-10-07T20:31:40.293Z,2.60
2022-10-07T20:34:08.471Z,2.60
2022-10-07T20:36:37.222Z,3.13
2022-10-07T20:39:32.510Z,2.15
2022-10-07T20:42:18.231Z,2.75
2022-10-07T20:44:47.460Z,2.83
2022-10-07T20:47:14.134Z,2.40
2022-10-07T20:49:42.118Z,3.22
2022-10-07T20:52:13.129Z,2.55
2022-10-07T20:54:40.075Z,2.80
2022-10-07T20:57:06.683Z,2.75
2022-10-07T20:59:33.382Z,2.75
2022-10-07T21:02:03.834Z,2.67
2022-10-07T21:04:33.508Z,2.95
2022-10-07T21:07:01.579Z,2.50
2022-10-07T21:09:36.160Z,2.92
2022-10-07T21:12:05.017Z,2.72
2022-10-07T21:14:31.589Z,2.25
2022-10-07T21:16:58.909Z,2.70
2022-10-07T21:19:25.948Z,3.47
2022-10-07T21:21:52.948Z,2.78
2022-10-07T21:24:19.577Z,2.60
2022-10-07T21:26:46.963Z,2.50
2022-10-07T21:29:14.206Z,2.63
2022-10-07T21:31:42.364Z,2.90
2022-10-07T21:34:12.138Z,2.35
2022-10-07T21:36:50.295Z,3.17
2022-10-07T21:39:17.031Z,2.90
2022-10-07T21:41:43.601Z,3.22
2022-10-07T21:44:13.632Z,2.63
2022-10-07T21:46:43.081Z,2.80
2022-10-07T21:49:10.200Z,2.83
2022-10-07T21:51:49.065Z,3.00
2022-10-07T21:54:19.782Z,2.70
2022-10-07T21:56:50.052Z,3.40
2022-10-07T21:59:16.609Z,3.08
2022-10-07T22:01:43.580Z,2.90
2022-10-07T22:04:18.415Z,3.00
2022-10-07T22:07:04.653Z,2.80
2022-10-07T22:09:31.942Z,2.42
2022-10-07T22:12:01.394Z,3.25
2022-10-07T22:14:28.537Z,2.63
2022-10-07T22:16:55.535Z,2.83
2022-10-07T22:19:22.955Z,2.97
2022-10-07T22:21:49.909Z,3.30
2022-10-07T22:24:16.861Z,3.00
2022-10-07T22:26:46.776Z,2.80
2022-10-07T22:29:16.256Z,3.08
2022-10-07T22:31:45.571Z,2.90
2022-10-07T22:34:31.514Z,3.28
2022-10-07T22:36:58.485Z,2.80
2022-10-07T22:39:28.930Z,2.90
2022-10-07T22:41:56.839Z,2.22
2022-10-07T22:44:23.497Z,2.65
2022-10-07T22:46:52.572Z,2.28
2022-10-07T22:49:20.183Z,2.72
2022-10-07T22:51:49.698Z,2.53
2022-10-07T22:54:16.441Z,2.65
2022-10-07T22:56:44.356Z,2.60
2022-10-07T22:59:11.467Z,2.53
2022-10-07T23:01:38.070Z,2.53
2022-10-07T23:04:05.453Z,2.67
2022-10-07T23:06:34.691Z,2.53
2022-10-07T23:09:02.926Z,2.40
2022-10-07T23:11:32.369Z,2.88
2022-10-07T23:13:59.905Z,3.00
2022-10-07T23:16:29.862Z,2.60
2022-10-07T23:19:00.979Z,2.53
2022-10-07T23:21:32.613Z,2.40
2022-10-07T23:24:05.874Z,2.75
2022-10-07T23:26:33.456Z,2.58
2022-10-07T23:29:00.686Z,2.33
2022-10-07T23:31:31.841Z,2.45
2022-10-07T23:34:00.983Z,2.78
2022-10-07T23:36:28.534Z,3.30
2022-10-07T23:38:55.591Z,3.25
2022-10-07T23:41:28.203Z,3.35
2022-10-07T23:43:57.798Z,3.60
2022-10-07T23:46:26.362Z,3.30
2022-10-07T23:48:53.495Z,3.17
2022-10-07T23:51:22.549Z,2.92
2022-10-07T23:53:50.736Z,3.38
2022-10-07T23:56:18.713Z,3.50
2022-10-07T23:58:45.605Z,3.15
